ARCT2: Red River, ARthur City

Data processed at Fri Mar 09 2018 23:31


All information presented herein is the property of the government of the United States of America and may be revised or deleted at any time without prior notice.
Dissemination of this information without the expressed written consent of the Public Affairs Office, Tulsa District U.S. Army Corps of Engineers is strictly prohibited.
These data are gathered electronically and, as presented, have not undergone any form of quality control. These data are not guaranteed to be valid or correct.
Go to home page.
Go to station list.

Upstream stations:

Downstream station:
Previous Day
Next Day
Current Day
    
SHEF ID:       ARCT2     Red River at Arthur City, TX
STATION TYPE:  

               PRECIP     STAGE  STAGE(2)  RIV-FLOW  BAT-LOAD
                   in        ft        ft       cfs      volt
              Ccp-Rev   Ccp-Rev   Ccp-Rev   Ccp-Rev   Ccp-Rev
(US/Central)
03/07 00:00      0.00     11.00     10.93     12563     12.57
03/07 01:00      0.00     10.99     10.92     12538     12.57
03/07 02:00      0.01     10.96     11.00     12464     12.57
03/07 03:00      0.00     10.93     10.96     12391     12.57
03/07 04:00      0.00     10.93     10.97     12391     12.49
03/07 05:00      0.00     10.91     10.95     12342     12.49
03/07 06:00      0.00     10.90     10.95     12318     12.41
03/07 07:00      0.00     10.88     10.93     12269     12.41
03/07 08:00      0.01     10.85     10.91     12196     12.57
03/07 09:00      0.00     10.87     10.91     12245     13.76
03/07 10:00      0.00     10.84     10.88     12172     14.64
03/07 11:00      0.00     10.81     10.87     12099     14.24
03/07 12:00      0.00     10.79     10.82     12051     14.08
03/07 13:00      0.01     10.77     10.81     12003     14.00
03/07 14:00      0.00     10.76     10.80     11979     14.00
03/07 15:00      0.00     10.76     10.73     11979     13.92
03/07 16:00      0.00     10.70     10.72     11835     13.92
03/07 17:00      0.00     10.70     10.70     11835     13.84
03/07 18:00      0.01     10.66     10.69     11739     13.44
03/07 19:00      0.00     10.64     10.68     11690     13.05
03/07 20:00      0.00     10.61     10.66     11617     12.65
03/07 21:00      0.00     10.59     10.63     11568     12.65
03/07 22:00      0.00     10.59     10.62     11568     12.57
03/07 23:00      0.00     10.54     10.59     11447     12.57